This is the latest recevied weather packets stored in our database for station/object YO8PIC-5. If no packets are shown the sender has not sent any weather packets the latest 10 day(s).
| Time | Temp. | Humidity | Pressure | Rain* | Wind** | Luminosity | Snow |
|---|---|---|---|---|---|---|---|
| 1777521413 | 0° C | 65% | 1024.7 hPa | - | - | - | - |
| 1777520513 | -1.11° C | 66% | 1024.7 hPa | - | - | - | - |
| 1777519613 | -2.22° C | 72% | 1024.5 hPa | - | - | - | - |
| 1777518713 | -1.67° C | 66% | 1024.3 hPa | - | - | - | - |
| 1777517813 | -2.22° C | 69% | 1024.3 hPa | - | - | - | - |
| 1777516912 | -1.11° C | 64% | 1024.1 hPa | - | - | - | - |
| 1777516012 | -1.11° C | 63% | 1023.8 hPa | - | - | - | - |
| 1777515112 | -1.11° C | 65% | 1023.7 hPa | - | - | - | - |
| 1777514212 | 0.56° C | 57% | 1023.7 hPa | - | - | - | - |
| 1777513312 | 0.56° C | 57% | 1023.6 hPa | - | - | - | - |
| 1777512411 | 0° C | 60% | 1023.5 hPa | - | - | - | - |
| 1777511511 | 0.56° C | 56% | 1023.4 hPa | - | - | - | - |
| 1777510611 | 0° C | 63% | 1023.5 hPa | - | - | - | - |
| 1777509710 | 0.56° C | 62% | 1023.5 hPa | - | - | - | - |
| 1777508817 | 1.67° C | 61% | 1023.4 hPa | - | - | - | - |
| 1777507916 | 2.22° C | 57% | 1023.6 hPa | - | - | - | - |
| 1777507016 | 2.22° C | 60% | 1023.5 hPa | - | - | - | - |
| 1777506116 | 2.78° C | 57% | 1023.6 hPa | - | - | - | - |
| 1777505215 | 2.78° C | 55% | 1023.4 hPa | - | - | - | - |
| 1777504315 | 2.22° C | 63% | 1023.3 hPa | - | - | - | - |
| 1777503415 | 2.22° C | 68% | 1023.4 hPa | - | - | - | - |
| 1777502515 | 2.22° C | 68% | 1023.3 hPa | - | - | - | - |
| 1777501615 | 2.78° C | 66% | 1023.3 hPa | - | - | - | - |
| 1777500715 | 2.78° C | 64% | 1023.3 hPa | - | - | - | - |
| 1777499814 | 2.78° C | 65% | 1023.2 hPa | - | - | - | - |
* Rain since midnight (hover to see other rain measurements)
** Current wind speed in m/s (hover to see current wind gust speed)